Elizabethtown, Pennsylvania
Current Conditions -  °F | °C
As of 7:56 PM on Monday 22 Dec 2014 (Local Time) from KMDT Reporting Station
Light Rain Light Rain  
Wind Chill: 24°   Ceiling: 2200
Heat Index: 33°   Visibility: 1.5mi
Dew Point: 32°   Wind: 12mph
Humidity: 96%   Direction: 300°WNW
Pressure: 30.19"   Gusts: NA
Location:  40.15°N, 76.61°W
Report Text: KMDT 230056Z 30010KT 1 1/2SM -RA BR FEW019 OVC022 01/00 A3019 RMK AO2 SLP228 P0002 T00060000
Loading
Personal Weather Stations






























Interactive Weather Map New forecast layout! Learn more

10-Day Weather Forecast

Advertisements
Track Severe Weather on mobile